sensor_id;sensor_type;location;lat;lon;timestamp;temperature;humidity
32107;DHT22;18622;51.998;10.440;2023-04-25T02:45:33;8.60;99.60
32107;DHT22;18622;51.998;10.440;2023-04-25T02:48:03;8.60;99.60
32107;DHT22;18622;51.998;10.440;2023-04-25T02:50:30;8.60;99.60
32107;DHT22;18622;51.998;10.440;2023-04-25T02:52:58;8.60;99.70
32107;DHT22;18622;51.998;10.440;2023-04-25T02:55:26;8.60;99.60
32107;DHT22;18622;51.998;10.440;2023-04-25T02:57:54;8.60;99.80
32107;DHT22;18622;51.998;10.440;2023-04-25T03:00:25;8.60;99.80
32107;DHT22;18622;51.998;10.440;2023-04-25T03:02:52;8.70;99.70
32107;DHT22;18622;51.998;10.440;2023-04-25T03:05:20;8.60;99.70
32107;DHT22;18622;51.998;10.440;2023-04-25T03:07:48;8.70;99.70
32107;DHT22;18622;51.998;10.440;2023-04-25T03:10:16;8.70;99.70
32107;DHT22;18622;51.998;10.440;2023-04-25T03:12:44;8.60;99.80
32107;DHT22;18622;51.998;10.440;2023-04-25T03:15:11;8.60;99.80
32107;DHT22;18622;51.998;10.440;2023-04-25T03:17:39;8.60;99.90
32107;DHT22;18622;51.998;10.440;2023-04-25T03:20:08;8.60;99.90
32107;DHT22;18622;51.998;10.440;2023-04-25T03:22:36;8.50;99.90
32107;DHT22;18622;51.998;10.440;2023-04-25T03:25:04;8.50;99.90
32107;DHT22;18622;51.998;10.440;2023-04-25T03:27:32;8.40;99.90
32107;DHT22;18622;51.998;10.440;2023-04-25T03:30:00;8.40;99.90
32107;DHT22;18622;51.998;10.440;2023-04-25T03:32:27;8.30;99.90
32107;DHT22;18622;51.998;10.440;2023-04-25T03:34:55;8.20;99.90
32107;DHT22;18622;51.998;10.440;2023-04-25T03:37:23;8.10;99.90
32107;DHT22;18622;51.998;10.440;2023-04-25T03:39:51;7.90;99.90
32107;DHT22;18622;51.998;10.440;2023-04-25T03:42:19;7.80;99.90
32107;DHT22;18622;51.998;10.440;2023-04-25T03:44:48;7.70;99.90
32107;DHT22;18622;51.998;10.440;2023-04-25T03:47:16;7.60;99.90
32107;DHT22;18622;51.998;10.440;2023-04-25T03:49:44;7.60;99.90
32107;DHT22;18622;51.998;10.440;2023-04-25T03:52:12;7.50;99.90
32107;DHT22;18622;51.998;10.440;2023-04-25T03:54:39;7.50;99.90
32107;DHT22;18622;51.998;10.440;2023-04-25T03:57:07;7.50;99.90
32107;DHT22;18622;51.998;10.440;2023-04-25T03:59:35;7.50;99.90
32107;DHT22;18622;51.998;10.440;2023-04-25T04:02:03;7.50;99.90
32107;DHT22;18622;51.998;10.440;2023-04-25T04:04:31;7.50;99.90
32107;DHT22;18622;51.998;10.440;2023-04-25T04:06:58;7.50;99.90
32107;DHT22;18622;51.998;10.440;2023-04-25T04:09:26;7.50;99.90
32107;DHT22;18622;51.998;10.440;2023-04-25T04:11:54;7.50;99.90
32107;DHT22;18622;51.998;10.440;2023-04-25T04:14:22;7.50;99.90
32107;DHT22;18622;51.998;10.440;2023-04-25T04:16:51;7.40;99.90
32107;DHT22;18622;51.998;10.440;2023-04-25T04:19:19;7.40;99.90
32107;DHT22;18622;51.998;10.440;2023-04-25T04:21:47;7.40;99.90
32107;DHT22;18622;51.998;10.440;2023-04-25T04:24:14;7.50;99.90
32107;DHT22;18622;51.998;10.440;2023-04-25T04:26:43;7.50;99.90
32107;DHT22;18622;51.998;10.440;2023-04-25T04:29:11;7.50;99.90
32107;DHT22;18622;51.998;10.440;2023-04-25T04:31:41;7.50;99.90
32107;DHT22;18622;51.998;10.440;2023-04-25T04:34:08;7.50;99.90
32107;DHT22;18622;51.998;10.440;2023-04-25T04:36:37;7.50;99.90
32107;DHT22;18622;51.998;10.440;2023-04-25T04:39:06;7.50;99.90
32107;DHT22;18622;51.998;10.440;2023-04-25T04:41:35;7.50;99.90
32107;DHT22;18622;51.998;10.440;2023-04-25T04:44:03;7.50;99.90
32107;DHT22;18622;51.998;10.440;2023-04-25T04:46:31;7.40;99.90
32107;DHT22;18622;51.998;10.440;2023-04-25T04:49:00;7.40;99.90
32107;DHT22;18622;51.998;10.440;2023-04-25T04:51:28;7.50;99.90
32107;DHT22;18622;51.998;10.440;2023-04-25T04:53:56;7.50;99.90
32107;DHT22;18622;51.998;10.440;2023-04-25T04:56:25;7.50;99.90
32107;DHT22;18622;51.998;10.440;2023-04-25T04:58:52;7.50;99.90
32107;DHT22;18622;51.998;10.440;2023-04-25T05:01:20;7.60;99.90
32107;DHT22;18622;51.998;10.440;2023-04-25T05:03:48;7.60;99.90
32107;DHT22;18622;51.998;10.440;2023-04-25T05:06:22;7.60;99.90
32107;DHT22;18622;51.998;10.440;2023-04-25T05:08:46;7.70;99.90
32107;DHT22;18622;51.998;10.440;2023-04-25T05:11:13;7.70;99.90
32107;DHT22;18622;51.998;10.440;2023-04-25T05:13:41;7.80;99.90
32107;DHT22;18622;51.998;10.440;2023-04-25T05:16:09;7.70;99.90
32107;DHT22;18622;51.998;10.440;2023-04-25T05:18:37;7.70;99.90
32107;DHT22;18622;51.998;10.440;2023-04-25T05:21:04;7.80;99.90
32107;DHT22;18622;51.998;10.440;2023-04-25T05:23:33;7.80;99.90
32107;DHT22;18622;51.998;10.440;2023-04-25T05:26:00;7.80;99.90
32107;DHT22;18622;51.998;10.440;2023-04-25T05:28:28;7.90;99.90
32107;DHT22;18622;51.998;10.440;2023-04-25T14:45:47;13.30;53.40
32107;DHT22;18622;51.998;10.440;2023-04-25T14:48:15;13.00;54.70
32107;DHT22;18622;51.998;10.440;2023-04-25T14:50:45;13.00;55.70
32107;DHT22;18622;51.998;10.440;2023-04-25T14:53:13;13.20;56.00
32107;DHT22;18622;51.998;10.440;2023-04-25T14:55:40;13.90;56.50
32107;DHT22;18622;51.998;10.440;2023-04-25T14:58:08;15.30;56.60
32107;DHT22;18622;51.998;10.440;2023-04-25T15:00:36;17.10;51.70
32107;DHT22;18622;51.998;10.440;2023-04-25T15:03:04;18.50;50.50
32107;DHT22;18622;51.998;10.440;2023-04-25T15:05:34;19.50;47.50
32107;DHT22;18622;51.998;10.440;2023-04-25T15:08:02;20.20;48.30
32107;DHT22;18622;51.998;10.440;2023-04-25T15:10:30;20.70;46.00
32107;DHT22;18622;51.998;10.440;2023-04-25T15:12:58;20.80;45.60
32107;DHT22;18622;51.998;10.440;2023-04-25T15:15:26;20.70;45.20
32107;DHT22;18622;51.998;10.440;2023-04-25T15:17:53;20.40;43.80
32107;DHT22;18622;51.998;10.440;2023-04-25T15:20:22;19.50;44.00
32107;DHT22;18622;51.998;10.440;2023-04-25T15:22:50;18.30;45.30
32107;DHT22;18622;51.998;10.440;2023-04-25T15:25:18;17.20;47.00
32107;DHT22;18622;51.998;10.440;2023-04-25T15:27:46;16.30;48.30
32107;DHT22;18622;51.998;10.440;2023-04-25T15:30:16;15.50;49.10
32107;DHT22;18622;51.998;10.440;2023-04-25T15:32:47;14.90;50.60
32107;DHT22;18622;51.998;10.440;2023-04-25T15:35:15;14.30;52.70
32107;DHT22;18622;51.998;10.440;2023-04-25T15:37:43;13.80;54.60
32107;DHT22;18622;51.998;10.440;2023-04-25T15:40:15;13.30;56.40
32107;DHT22;18622;51.998;10.440;2023-04-25T15:42:46;12.70;58.70
32107;DHT22;18622;51.998;10.440;2023-04-25T15:45:14;12.10;61.70
32107;DHT22;18622;51.998;10.440;2023-04-25T15:47:44;11.50;63.90
32107;DHT22;18622;51.998;10.440;2023-04-25T15:50:12;11.10;64.90
32107;DHT22;18622;51.998;10.440;2023-04-25T15:52:41;10.70;65.80
32107;DHT22;18622;51.998;10.440;2023-04-25T15:55:10;10.50;67.90
32107;DHT22;18622;51.998;10.440;2023-04-25T15:57:39;10.40;70.30
32107;DHT22;18622;51.998;10.440;2023-04-25T16:00:10;10.30;70.90
32107;DHT22;18622;51.998;10.440;2023-04-25T16:02:41;10.50;71.90
32107;DHT22;18622;51.998;10.440;2023-04-25T16:05:09;10.60;72.20
32107;DHT22;18622;51.998;10.440;2023-04-25T16:07:42;10.70;72.00
32107;DHT22;18622;51.998;10.440;2023-04-25T16:10:11;10.80;71.80
32107;DHT22;18622;51.998;10.440;2023-04-25T16:12:39;10.80;72.40
32107;DHT22;18622;51.998;10.440;2023-04-25T16:15:07;11.00;72.60
32107;DHT22;18622;51.998;10.440;2023-04-25T16:17:35;11.70;73.00
32107;DHT22;18622;51.998;10.440;2023-04-25T16:20:03;12.30;71.70
32107;DHT22;18622;51.998;10.440;2023-04-25T16:22:32;13.00;71.20
32107;DHT22;18622;51.998;10.440;2023-04-25T16:25:00;13.80;69.20
32107;DHT22;18622;51.998;10.440;2023-04-25T16:27:28;14.40;66.00
32107;DHT22;18622;51.998;10.440;2023-04-25T16:29:56;14.70;65.80
32107;DHT22;18622;51.998;10.440;2023-04-25T16:32:24;15.10;64.20
32107;DHT22;18622;51.998;10.440;2023-04-25T16:34:52;15.40;65.00
32107;DHT22;18622;51.998;10.440;2023-04-25T16:37:20;16.00;63.00
32107;DHT22;18622;51.998;10.440;2023-04-25T16:39:48;16.20;60.60
32107;DHT22;18622;51.998;10.440;2023-04-25T16:42:15;16.00;60.00
32107;DHT22;18622;51.998;10.440;2023-04-25T16:44:43;15.30;59.80
32107;DHT22;18622;51.998;10.440;2023-04-25T16:47:11;14.60;61.00
32107;DHT22;18622;51.998;10.440;2023-04-25T16:49:39;13.80;62.10
32107;DHT22;18622;51.998;10.440;2023-04-25T16:52:07;13.10;63.50
32107;DHT22;18622;51.998;10.440;2023-04-25T16:54:34;12.50;64.90
32107;DHT22;18622;51.998;10.440;2023-04-25T16:57:03;12.10;65.70
32107;DHT22;18622;51.998;10.440;2023-04-25T16:59:31;11.80;65.80
32107;DHT22;18622;51.998;10.440;2023-04-25T17:01:58;11.60;66.50
32107;DHT22;18622;51.998;10.440;2023-04-25T17:04:27;11.50;67.50
32107;DHT22;18622;51.998;10.440;2023-04-25T17:06:55;11.40;68.10
32107;DHT22;18622;51.998;10.440;2023-04-25T17:09:23;11.40;68.50
32107;DHT22;18622;51.998;10.440;2023-04-25T17:11:51;11.30;68.30
32107;DHT22;18622;51.998;10.440;2023-04-25T17:14:18;11.20;68.40
32107;DHT22;18622;51.998;10.440;2023-04-25T17:16:46;11.10;68.50
32107;DHT22;18622;51.998;10.440;2023-04-25T17:19:14;11.00;69.00
32107;DHT22;18622;51.998;10.440;2023-04-25T17:21:43;11.00;69.40
32107;DHT22;18622;51.998;10.440;2023-04-25T17:24:11;10.90;69.80
32107;DHT22;18622;51.998;10.440;2023-04-25T17:26:40;10.90;69.50
32107;DHT22;18622;51.998;10.440;2023-04-25T17:29:08;10.80;69.70
32107;DHT22;18622;51.998;10.440;2023-04-25T17:31:36;10.80;70.00
32107;DHT22;18622;51.998;10.440;2023-04-25T17:34:04;10.80;70.40
32107;DHT22;18622;51.998;10.440;2023-04-25T17:36:32;10.80;70.50
32107;DHT22;18622;51.998;10.440;2023-04-25T17:38:59;10.80;70.50
32107;DHT22;18622;51.998;10.440;2023-04-25T17:41:27;10.80;70.50
32107;DHT22;18622;51.998;10.440;2023-04-25T17:43:55;10.80;70.40
32107;DHT22;18622;51.998;10.440;2023-04-25T17:46:23;10.80;69.30
32107;DHT22;18622;51.998;10.440;2023-04-25T17:48:52;10.70;69.30
32107;DHT22;18622;51.998;10.440;2023-04-25T17:51:19;10.50;69.00
32107;DHT22;18622;51.998;10.440;2023-04-25T17:53:47;10.30;68.80
32107;DHT22;18622;51.998;10.440;2023-04-25T17:56:15;10.20;69.10
32107;DHT22;18622;51.998;10.440;2023-04-25T17:58:43;10.00;69.40
32107;DHT22;18622;51.998;10.440;2023-04-25T18:01:11;10.00;69.70
32107;DHT22;18622;51.998;10.440;2023-04-25T18:03:39;9.90;70.30
32107;DHT22;18622;51.998;10.440;2023-04-25T18:06:08;9.90;70.60
32107;DHT22;18622;51.998;10.440;2023-04-25T18:08:36;9.80;70.20
32107;DHT22;18622;51.998;10.440;2023-04-25T18:11:04;9.70;70.50
32107;DHT22;18622;51.998;10.440;2023-04-25T18:13:32;9.50;71.30
32107;DHT22;18622;51.998;10.440;2023-04-25T18:16:00;9.40;71.50
32107;DHT22;18622;51.998;10.440;2023-04-25T18:18:27;9.20;72.00
32107;DHT22;18622;51.998;10.440;2023-04-25T18:20:57;9.00;72.80
32107;DHT22;18622;51.998;10.440;2023-04-25T18:23:25;8.80;73.00
32107;DHT22;18622;51.998;10.440;2023-04-25T18:25:53;8.80;73.60
32107;DHT22;18622;51.998;10.440;2023-04-25T18:28:21;8.70;74.20
32107;DHT22;18622;51.998;10.440;2023-04-25T18:30:48;8.70;74.30
32107;DHT22;18622;51.998;10.440;2023-04-25T18:33:16;8.70;74.60
32107;DHT22;18622;51.998;10.440;2023-04-25T18:35:44;8.70;75.50
32107;DHT22;18622;51.998;10.440;2023-04-25T18:38:12;8.70;76.10
32107;DHT22;18622;51.998;10.440;2023-04-25T18:40:40;8.60;77.10
32107;DHT22;18622;51.998;10.440;2023-04-25T18:43:08;8.30;77.90
32107;DHT22;18622;51.998;10.440;2023-04-25T18:45:36;8.10;79.50
32107;DHT22;18622;51.998;10.440;2023-04-25T18:48:03;7.90;81.00
32107;DHT22;18622;51.998;10.440;2023-04-25T18:50:31;7.80;81.20
32107;DHT22;18622;51.998;10.440;2023-04-25T18:52:59;7.60;81.60
32107;DHT22;18622;51.998;10.440;2023-04-25T18:55:28;7.60;82.30
32107;DHT22;18622;51.998;10.440;2023-04-25T18:57:56;7.50;82.70
32107;DHT22;18622;51.998;10.440;2023-04-25T19:00:23;7.50;83.10
32107;DHT22;18622;51.998;10.440;2023-04-25T19:02:51;7.50;83.70
32107;DHT22;18622;51.998;10.440;2023-04-25T19:05:20;7.40;84.10
32107;DHT22;18622;51.998;10.440;2023-04-25T19:07:48;7.40;84.70
32107;DHT22;18622;51.998;10.440;2023-04-25T19:10:16;7.40;85.20
32107;DHT22;18622;51.998;10.440;2023-04-25T19:12:44;7.30;86.30
32107;DHT22;18622;51.998;10.440;2023-04-25T19:15:12;7.20;87.10
32107;DHT22;18622;51.998;10.440;2023-04-25T19:17:40;7.00;87.30
32107;DHT22;18622;51.998;10.440;2023-04-25T19:20:09;6.90;88.70
32107;DHT22;18622;51.998;10.440;2023-04-25T19:22:36;6.80;89.00
32107;DHT22;18622;51.998;10.440;2023-04-25T19:25:04;6.80;89.60
32107;DHT22;18622;51.998;10.440;2023-04-25T19:27:32;6.70;90.40
32107;DHT22;18622;51.998;10.440;2023-04-25T19:30:00;6.60;91.00
32107;DHT22;18622;51.998;10.440;2023-04-25T19:32:29;6.60;91.90
32107;DHT22;18622;51.998;10.440;2023-04-25T19:34:58;6.60;92.60
32107;DHT22;18622;51.998;10.440;2023-04-25T19:37:25;6.50;93.30
32107;DHT22;18622;51.998;10.440;2023-04-25T19:39:53;6.50;93.60
32107;DHT22;18622;51.998;10.440;2023-04-25T19:42:22;6.50;93.80
32107;DHT22;18622;51.998;10.440;2023-04-25T19:44:51;6.50;94.50
32107;DHT22;18622;51.998;10.440;2023-04-25T19:47:18;6.50;94.50
32107;DHT22;18622;51.998;10.440;2023-04-25T19:49:46;6.50;94.80
32107;DHT22;18622;51.998;10.440;2023-04-25T19:52:14;6.40;95.30
32107;DHT22;18622;51.998;10.440;2023-04-25T19:54:43;6.40;95.80
32107;DHT22;18622;51.998;10.440;2023-04-25T19:57:13;6.40;95.90
32107;DHT22;18622;51.998;10.440;2023-04-25T19:59:41;6.40;95.90
32107;DHT22;18622;51.998;10.440;2023-04-25T20:02:10;6.30;96.20
32107;DHT22;18622;51.998;10.440;2023-04-25T20:04:38;6.30;96.30
32107;DHT22;18622;51.998;10.440;2023-04-25T20:07:06;6.30;96.80
32107;DHT22;18622;51.998;10.440;2023-04-25T20:09:34;6.40;96.90
32107;DHT22;18622;51.998;10.440;2023-04-25T20:12:02;6.40;97.20
32107;DHT22;18622;51.998;10.440;2023-04-25T20:14:30;6.50;97.20
32107;DHT22;18622;51.998;10.440;2023-04-25T20:16:58;6.50;97.10
32107;DHT22;18622;51.998;10.440;2023-04-25T20:19:26;6.60;97.20
32107;DHT22;18622;51.998;10.440;2023-04-25T20:21:54;6.60;97.00
32107;DHT22;18622;51.998;10.440;2023-04-25T20:24:22;6.60;97.20
32107;DHT22;18622;51.998;10.440;2023-04-25T20:26:50;6.60;97.20
32107;DHT22;18622;51.998;10.440;2023-04-25T20:29:17;6.60;97.10
32107;DHT22;18622;51.998;10.440;2023-04-25T20:31:45;6.60;97.20
32107;DHT22;18622;51.998;10.440;2023-04-25T20:34:16;6.70;97.30
32107;DHT22;18622;51.998;10.440;2023-04-25T20:36:44;6.70;97.30
32107;DHT22;18622;51.998;10.440;2023-04-25T20:39:12;6.70;97.40
32107;DHT22;18622;51.998;10.440;2023-04-25T20:41:40;6.70;97.30
32107;DHT22;18622;51.998;10.440;2023-04-25T20:44:10;6.70;97.30
